Time;durP1;ratioP1;P1;durP2;ratioP2;P2;SDS_P1;SDS_P2;PMS_P1;PMS_P2;Temp;Humidity;BMP_temperature;BMP_pressure;BME280_temperature;BME280_humidity;BME280_pressure;Samples;Min_cycle;Max_cycle;Signal;HPM_P1;HPM_P2
2022/02/17 00:00:13;;;;;;;0.70;0.27;;;11.40;99.90;;;;;;5139280;27;20830;-45
2022/02/17 00:02:42;;;;;;;1.63;0.33;;;11.40;99.90;;;;;;5140084;27;20176;-45
2022/02/17 00:05:09;;;;;;;0.70;0.30;;;11.50;99.90;;;;;;5121687;27;20434;-45
2022/02/17 00:07:36;;;;;;;0.77;0.40;;;11.50;99.90;;;;;;5141324;27;20406;-46
2022/02/17 00:10:04;;;;;;;1.27;0.60;;;11.60;99.90;;;;;;5139571;27;20433;-46
2022/02/17 00:12:30;;;;;;;0.80;0.40;;;11.70;99.90;;;;;;5141095;27;20413;-45
2022/02/17 00:14:57;;;;;;;0.70;0.30;;;11.60;99.90;;;;;;5138290;27;20801;-43
2022/02/17 00:17:22;;;;;;;0.70;0.30;;;11.70;99.90;;;;;;5140707;27;20452;-43
2022/02/17 00:19:48;;;;;;;0.80;0.20;;;11.60;99.90;;;;;;5138020;27;20499;-44
2022/02/17 00:22:14;;;;;;;0.70;0.23;;;11.70;99.90;;;;;;5137964;27;20236;-44
2022/02/17 00:24:39;;;;;;;0.70;0.30;;;11.70;99.90;;;;;;5139479;27;20194;-44
2022/02/17 00:27:05;;;;;;;0.97;0.40;;;11.70;99.90;;;;;;5140114;27;20186;-44
2022/02/17 00:29:31;;;;;;;0.73;0.30;;;11.70;99.90;;;;;;5138702;27;20417;-44
2022/02/17 00:31:57;;;;;;;0.70;0.30;;;11.70;99.90;;;;;;5139967;27;20472;-44
2022/02/17 00:34:23;;;;;;;0.70;0.40;;;11.70;99.90;;;;;;5138535;27;20434;-44
2022/02/17 00:36:49;;;;;;;1.03;0.40;;;11.70;99.90;;;;;;5139665;27;20308;-44
2022/02/17 00:39:18;;;;;;;0.80;0.40;;;11.70;99.90;;;;;;5139659;27;20445;-44
2022/02/17 00:41:44;;;;;;;0.63;0.20;;;11.70;99.90;;;;;;5141483;27;20457;-44
2022/02/17 00:44:10;;;;;;;1.00;0.40;;;11.70;99.90;;;;;;5139299;27;20188;-44
2022/02/17 00:46:35;;;;;;;0.70;0.40;;;11.60;99.90;;;;;;5140567;27;20256;-44
2022/02/17 00:49:01;;;;;;;0.70;0.30;;;11.70;99.90;;;;;;5138805;27;20215;-44
2022/02/17 00:51:27;;;;;;;0.90;0.40;;;11.60;99.90;;;;;;5141476;27;20180;-44
2022/02/17 00:53:52;;;;;;;0.70;0.30;;;11.60;99.90;;;;;;5138894;27;20190;-44
2022/02/17 00:56:18;;;;;;;2.10;0.40;;;11.60;99.90;;;;;;5138476;27;20496;-44
2022/02/17 00:58:44;;;;;;;0.90;0.40;;;11.60;99.90;;;;;;5135945;27;20191;-44
2022/02/17 01:01:09;;;;;;;0.87;0.37;;;11.60;99.90;;;;;;5138441;27;20174;-44
2022/02/17 01:03:35;;;;;;;0.70;0.30;;;11.50;99.90;;;;;;5139424;27;20202;-44
2022/02/17 01:06:01;;;;;;;0.80;0.50;;;11.50;99.90;;;;;;5138451;27;20195;-44
2022/02/17 01:08:27;;;;;;;0.77;0.40;;;11.50;99.90;;;;;;5139338;27;20417;-44
2022/02/17 01:10:53;;;;;;;0.80;0.40;;;11.60;99.90;;;;;;5138188;27;20923;-44
2022/02/17 01:13:19;;;;;;;1.17;0.30;;;11.60;99.90;;;;;;5139943;27;20209;-43
2022/02/17 01:15:45;;;;;;;1.63;0.40;;;11.50;99.90;;;;;;5137246;27;20236;-43
2022/02/17 01:18:11;;;;;;;2.20;0.53;;;11.40;99.90;;;;;;5138535;27;20571;-49
2022/02/17 01:20:37;;;;;;;0.80;0.30;;;11.30;99.90;;;;;;5139493;27;20187;-44
2022/02/17 01:23:02;;;;;;;0.80;0.30;;;11.30;99.90;;;;;;5138394;27;20247;-44
2022/02/17 01:25:28;;;;;;;0.70;0.30;;;11.20;99.90;;;;;;5138170;27;20469;-44
2022/02/17 01:27:55;;;;;;;0.70;0.30;;;11.20;99.90;;;;;;5137507;27;20278;-44
2022/02/17 01:30:21;;;;;;;1.17;0.87;;;11.20;99.90;;;;;;5139529;27;20271;-44
2022/02/17 01:32:46;;;;;;;0.70;0.30;;;11.10;99.90;;;;;;5138422;27;20425;-44
2022/02/17 01:35:12;;;;;;;0.60;0.30;;;11.00;99.90;;;;;;5120798;27;20475;-44
2022/02/17 01:37:38;;;;;;;0.97;0.20;;;11.00;99.90;;;;;;5137821;27;20510;-44
2022/02/17 01:40:04;;;;;;;0.87;0.20;;;10.90;99.90;;;;;;5139687;27;20175;-44
2022/02/17 01:42:30;;;;;;;0.70;0.33;;;10.90;99.90;;;;;;5120496;27;20183;-44
2022/02/17 01:44:55;;;;;;;0.67;0.30;;;10.80;99.90;;;;;;5139337;27;20786;-44
2022/02/17 01:47:21;;;;;;;1.00;0.30;;;10.80;99.90;;;;;;5137237;27;20172;-44
2022/02/17 01:49:47;;;;;;;0.87;0.30;;;10.80;99.90;;;;;;5138997;27;20575;-44
2022/02/17 01:52:14;;;;;;;0.90;0.43;;;10.80;99.90;;;;;;5138036;27;20436;-44
2022/02/17 01:54:46;;;;;;;0.67;0.27;;;10.80;99.90;;;;;;5139019;27;20500;-44
2022/02/17 01:57:22;;;;;;;0.80;0.27;;;10.80;99.90;;;;;;5137493;27;20425;-44
2022/02/17 01:59:48;;;;;;;0.70;0.30;;;10.80;99.90;;;;;;5121145;27;20436;-44
2022/02/17 02:02:14;;;;;;;0.60;0.20;;;10.70;99.90;;;;;;5136907;27;20413;-44
2022/02/17 02:04:39;;;;;;;0.87;0.40;;;10.70;99.90;;;;;;5138895;27;20206;-45
2022/02/17 02:07:06;;;;;;;0.80;0.30;;;10.70;99.90;;;;;;5137010;27;20183;-45
2022/02/17 02:09:32;;;;;;;0.60;0.20;;;10.60;99.90;;;;;;5138744;27;20180;-44
2022/02/17 02:11:58;;;;;;;2.00;0.47;;;10.60;99.90;;;;;;5137562;27;20448;-44
2022/02/17 02:15:10;;;;;;;0.70;0.33;;;10.60;99.90;;;;;;5138430;28;20856;-45
2022/02/17 02:17:38;;;;;;;0.70;0.30;;;10.60;99.90;;;;;;5137665;28;20417;-44
2022/02/17 02:20:06;;;;;;;1.37;0.40;;;10.60;99.90;;;;;;5138815;28;20854;-44
2022/02/17 02:22:33;;;;;;;0.70;0.33;;;10.60;99.90;;;;;;5137452;28;20417;-44
2022/02/17 02:25:00;;;;;;;0.70;0.40;;;10.60;99.90;;;;;;5138780;28;20502;-44
2022/02/17 02:27:27;;;;;;;0.70;0.43;;;10.60;99.90;;;;;;5137634;28;20439;-44
2022/02/17 02:29:53;;;;;;;0.80;0.50;;;10.60;99.90;;;;;;5139075;28;20428;-44
2022/02/17 02:32:19;;;;;;;0.87;0.40;;;10.60;99.90;;;;;;5118912;28;20421;-45
2022/02/17 02:34:44;;;;;;;0.90;0.40;;;10.50;99.90;;;;;;5120505;28;21002;-42
2022/02/17 02:37:10;;;;;;;1.20;0.40;;;10.50;99.90;;;;;;5120466;27;20575;-44
2022/02/17 02:39:36;;;;;;;1.03;0.57;;;10.50;99.90;;;;;;5143082;27;20183;-45
2022/02/17 02:42:03;;;;;;;0.70;0.30;;;10.50;99.90;;;;;;5141828;27;20193;-44
2022/02/17 02:44:29;;;;;;;0.73;0.37;;;10.50;99.90;;;;;;5124956;27;20432;-45
2022/02/17 02:46:55;;;;;;;0.80;0.30;;;10.50;99.90;;;;;;5123160;27;20838;-44
2022/02/17 02:49:20;;;;;;;0.60;0.20;;;10.40;99.90;;;;;;5142040;27;20576;-44
2022/02/17 02:51:46;;;;;;;0.70;0.30;;;10.50;99.90;;;;;;5141397;27;20420;-45
2022/02/17 02:54:12;;;;;;;0.80;0.30;;;10.50;99.90;;;;;;5142891;27;20236;-45
2022/02/17 02:56:37;;;;;;;0.83;0.30;;;10.40;99.90;;;;;;5141269;27;20219;-45
2022/02/17 02:59:03;;;;;;;0.60;0.20;;;10.40;99.90;;;;;;5142674;27;20203;-45
2022/02/17 03:01:29;;;;;;;0.70;0.30;;;10.40;99.90;;;;;;5140941;27;20179;-45
2022/02/17 03:03:55;;;;;;;0.60;0.20;;;10.40;99.90;;;;;;5142309;27;20705;-44
2022/02/17 03:06:21;;;;;;;0.67;0.37;;;10.40;99.90;;;;;;5142403;27;20420;-44
2022/02/17 03:08:47;;;;;;;0.70;0.20;;;10.50;99.90;;;;;;5140945;27;20190;-44
2022/02/17 03:11:13;;;;;;;0.60;0.30;;;10.50;99.90;;;;;;5141974;27;20596;-44
2022/02/17 03:13:38;;;;;;;0.60;0.20;;;10.50;99.90;;;;;;5141024;27;20256;-44
2022/02/17 03:16:04;;;;;;;0.60;0.20;;;10.50;99.90;;;;;;5142252;27;20497;-44
2022/02/17 03:18:30;;;;;;;0.70;0.30;;;10.50;99.90;;;;;;5141224;27;20230;-44
2022/02/17 03:20:55;;;;;;;0.80;0.30;;;10.50;99.90;;;;;;5141645;27;20156;-44
2022/02/17 03:23:21;;;;;;;0.60;0.20;;;10.50;99.90;;;;;;5140175;27;20247;-45
2022/02/17 03:25:47;;;;;;;0.90;0.30;;;10.50;99.90;;;;;;5141560;27;20195;-43
2022/02/17 03:28:13;;;;;;;0.93;0.30;;;10.50;99.90;;;;;;5140489;27;20183;-44
2022/02/17 03:30:39;;;;;;;0.90;0.37;;;10.50;99.90;;;;;;5141319;27;20262;-45
2022/02/17 03:33:04;;;;;;;0.80;0.30;;;10.50;99.90;;;;;;5139970;27;20429;-44
2022/02/17 03:35:30;;;;;;;0.60;0.20;;;10.50;99.90;;;;;;5141646;27;20892;-44
2022/02/17 03:37:56;;;;;;;0.70;0.30;;;10.50;99.90;;;;;;5140324;27;20179;-45
2022/02/17 03:40:21;;;;;;;0.70;0.30;;;10.50;99.90;;;;;;5141274;27;20175;-44
2022/02/17 03:42:47;;;;;;;0.70;0.20;;;10.40;99.90;;;;;;5140390;27;20186;-45
2022/02/17 03:45:13;;;;;;;0.60;0.30;;;10.40;99.90;;;;;;5141087;27;20263;-44
2022/02/17 03:47:39;;;;;;;0.60;0.30;;;10.40;99.90;;;;;;5139885;27;20186;-44
2022/02/17 03:50:06;;;;;;;1.43;0.30;;;10.40;99.90;;;;;;5141531;27;20535;-45
2022/02/17 03:52:32;;;;;;;1.10;0.30;;;10.40;99.90;;;;;;5105419;27;20436;-45
2022/02/17 03:54:57;;;;;;;0.60;0.20;;;10.40;99.90;;;;;;5141364;27;20496;-45
2022/02/17 03:57:23;;;;;;;2.97;0.43;;;10.40;99.90;;;;;;5121697;27;20176;-45
2022/02/17 03:59:49;;;;;;;0.90;0.30;;;10.40;99.90;;;;;;5139644;27;20179;-45
2022/02/17 04:02:14;;;;;;;0.70;0.20;;;10.40;99.90;;;;;;5139330;27;20179;-45
2022/02/17 04:04:40;;;;;;;0.60;0.23;;;10.40;99.90;;;;;;5140382;27;20168;-46
2022/02/17 04:07:06;;;;;;;0.60;0.30;;;10.50;99.90;;;;;;5134274;27;20194;-46
2022/02/17 04:09:32;;;;;;;0.80;0.37;;;10.50;99.90;;;;;;5161635;27;20436;-45
2022/02/17 04:11:57;;;;;;;0.60;0.20;;;10.50;99.90;;;;;;5160458;27;20223;-44
2022/02/17 04:14:23;;;;;;;1.33;0.30;;;10.60;99.90;;;;;;5161985;27;20465;-46
2022/02/17 04:16:49;;;;;;;0.70;0.23;;;10.60;99.90;;;;;;5160162;27;20212;-45
2022/02/17 04:19:15;;;;;;;0.87;0.30;;;10.60;99.90;;;;;;5162115;27;20231;-46
2022/02/17 04:21:41;;;;;;;0.70;0.20;;;10.70;99.90;;;;;;5159606;27;20545;-46
2022/02/17 04:24:07;;;;;;;0.80;0.30;;;10.70;99.90;;;;;;5160791;27;20409;-45
2022/02/17 04:26:33;;;;;;;0.60;0.20;;;10.70;99.90;;;;;;5159431;27;20193;-46
2022/02/17 04:28:58;;;;;;;0.60;0.30;;;10.70;99.90;;;;;;5157858;27;20178;-45
2022/02/17 04:31:24;;;;;;;0.77;0.27;;;10.70;99.90;;;;;;5158173;27;20165;-45
2022/02/17 04:33:50;;;;;;;2.00;0.50;;;10.70;99.90;;;;;;5157296;27;20625;-46
2022/02/17 04:36:16;;;;;;;0.93;0.40;;;10.70;99.90;;;;;;5158188;27;20237;-45
2022/02/17 04:38:42;;;;;;;1.60;0.37;;;10.60;99.90;;;;;;5156492;27;20190;-46
2022/02/17 04:43:52;;;;;;;0.70;0.30;;;10.60;99.90;;;;;;5158400;27;20556;-45
2022/02/17 04:46:18;;;;;;;1.03;0.30;;;10.60;99.90;;;;;;5160313;27;20419;-45
2022/02/17 04:48:43;;;;;;;0.70;0.30;;;10.60;99.90;;;;;;5159154;27;20187;-45
2022/02/17 04:51:09;;;;;;;0.60;0.30;;;10.60;99.90;;;;;;5160111;27;20209;-46
2022/02/17 04:53:35;;;;;;;2.53;0.20;;;10.70;99.90;;;;;;5158630;27;20187;-46
2022/02/17 04:56:01;;;;;;;0.77;0.40;;;10.60;99.90;;;;;;5158561;27;20209;-45
2022/02/17 04:58:27;;;;;;;0.70;0.30;;;10.70;99.90;;;;;;5156784;27;20282;-45
2022/02/17 05:00:53;;;;;;;0.83;0.30;;;10.70;99.90;;;;;;5158329;27;20407;-45
2022/02/17 05:03:23;;;;;;;0.80;0.27;;;10.70;99.90;;;;;;5158538;27;20725;-43
2022/02/17 05:05:50;;;;;;;0.63;0.30;;;10.80;99.90;;;;;;5157836;27;20182;-44
2022/02/17 05:08:16;;;;;;;0.80;0.40;;;10.80;99.90;;;;;;5156373;27;20436;-42
2022/02/17 05:10:41;;;;;;;0.67;0.20;;;10.90;99.90;;;;;;5157761;27;20411;-45
2022/02/17 05:13:07;;;;;;;1.43;0.73;;;10.90;99.90;;;;;;5156335;27;20451;-42
2022/02/17 05:15:33;;;;;;;0.63;0.30;;;10.90;99.90;;;;;;5157105;27;20286;-43
2022/02/17 05:17:58;;;;;;;0.70;0.40;;;10.80;99.90;;;;;;5154980;27;20549;-45
2022/02/17 05:20:24;;;;;;;0.80;0.40;;;10.80;99.90;;;;;;5156924;27;20167;-44
2022/02/17 05:22:49;;;;;;;1.77;0.30;;;10.80;99.90;;;;;;5156464;27;20186;-42
2022/02/17 05:25:15;;;;;;;0.80;0.30;;;10.70;99.90;;;;;;5156753;27;20183;-44
2022/02/17 05:27:41;;;;;;;2.57;0.30;;;10.70;99.90;;;;;;5155399;27;20232;-47
2022/02/17 05:30:07;;;;;;;1.00;0.50;;;10.70;99.90;;;;;;5140900;27;20193;-44
2022/02/17 05:32:47;;;;;;;0.90;0.47;;;10.60;99.90;;;;;;5157302;27;20179;-43
2022/02/17 05:35:13;;;;;;;2.07;0.70;;;10.60;99.90;;;;;;5157298;27;20520;-45
2022/02/17 05:37:39;;;;;;;0.97;0.50;;;10.50;99.90;;;;;;5156531;27;20424;-44
2022/02/17 05:40:08;;;;;;;0.83;0.40;;;10.50;99.90;;;;;;5158248;27;20408;-43
2022/02/17 05:42:34;;;;;;;0.90;0.30;;;10.40;99.90;;;;;;5157637;27;20416;-43
2022/02/17 05:45:00;;;;;;;0.80;0.40;;;10.40;99.90;;;;;;5158706;27;20695;-43
2022/02/17 05:47:26;;;;;;;0.90;0.40;;;10.40;99.90;;;;;;5139753;27;20167;-42
2022/02/17 05:49:51;;;;;;;0.80;0.40;;;10.30;99.90;;;;;;5158814;27;20175;-45
2022/02/17 05:52:17;;;;;;;0.70;0.30;;;10.30;99.90;;;;;;5156837;27;20216;-41
2022/02/17 05:54:42;;;;;;;1.00;0.50;;;10.30;99.90;;;;;;5157937;27;20587;-45
2022/02/17 05:57:08;;;;;;;1.00;0.40;;;10.40;99.90;;;;;;5156458;27;20167;-41
2022/02/17 05:59:34;;;;;;;0.80;0.30;;;10.50;99.90;;;;;;5156803;27;20247;-46
2022/02/17 06:02:00;;;;;;;0.70;0.30;;;10.50;99.90;;;;;;5156205;27;20181;-43
2022/02/17 06:04:25;;;;;;;1.30;0.60;;;10.60;99.90;;;;;;5156561;27;20198;-45
2022/02/17 06:06:51;;;;;;;1.43;0.47;;;10.50;99.90;;;;;;5155447;27;20170;-42
2022/02/17 06:09:17;;;;;;;1.00;0.50;;;10.50;99.90;;;;;;5139032;27;20235;-44
2022/02/17 06:11:42;;;;;;;1.30;0.60;;;10.50;99.90;;;;;;5155009;27;20255;-42
2022/02/17 06:14:08;;;;;;;2.50;0.73;;;10.50;99.90;;;;;;5139538;27;20553;-45
2022/02/17 06:16:34;;;;;;;2.17;0.70;;;10.50;99.90;;;;;;5138567;27;20202;-44
2022/02/17 06:19:00;;;;;;;1.63;0.80;;;10.40;99.90;;;;;;5155496;27;20494;-42
2022/02/17 06:21:25;;;;;;;0.90;0.60;;;10.40;99.90;;;;;;5157778;27;20174;-42
2022/02/17 06:23:51;;;;;;;2.00;0.90;;;10.40;99.90;;;;;;5119356;27;20182;-42
2022/02/17 06:26:18;;;;;;;2.73;0.80;;;10.30;99.90;;;;;;5154566;27;20194;-41
2022/02/17 06:28:44;;;;;;;1.60;1.00;;;10.30;99.90;;;;;;5154076;27;20170;-43
2022/02/17 06:31:10;;;;;;;3.80;0.97;;;10.20;99.90;;;;;;5154115;27;20439;-42
2022/02/17 06:33:36;;;;;;;3.47;0.90;;;10.20;99.90;;;;;;5132311;27;20981;-45
2022/02/17 06:36:02;;;;;;;3.83;1.30;;;10.10;99.90;;;;;;5154794;27;20486;-44
2022/02/17 06:38:27;;;;;;;6.20;1.20;;;10.00;99.90;;;;;;5153594;27;20201;-42
2022/02/17 06:40:53;;;;;;;4.13;1.10;;;9.90;99.90;;;;;;5151492;27;20339;-42
2022/02/17 06:43:19;;;;;;;6.83;1.37;;;10.00;99.90;;;;;;5148966;27;20189;-44
2022/02/17 06:45:45;;;;;;;5.40;1.80;;;9.90;99.90;;;;;;5153676;27;20171;-43
2022/02/17 06:48:11;;;;;;;3.50;1.27;;;9.90;99.90;;;;;;5136702;27;20185;-42
2022/02/17 06:50:38;;;;;;;4.40;1.37;;;9.80;99.90;;;;;;5153360;27;20424;-44
2022/02/17 06:53:04;;;;;;;4.70;1.43;;;9.80;99.90;;;;;;5153771;27;20703;-42
2022/02/17 06:55:30;;;;;;;6.00;2.47;;;9.80;99.90;;;;;;5152753;27;20561;-44
2022/02/17 06:57:55;;;;;;;4.00;1.40;;;9.70;99.90;;;;;;5151410;27;20583;-42
2022/02/17 07:00:21;;;;;;;10.63;2.33;;;9.70;99.90;;;;;;5150117;27;20174;-42
2022/02/17 07:02:54;;;;;;;10.63;1.70;;;9.70;99.90;;;;;;5152683;27;20171;-45
2022/02/17 07:05:21;;;;;;;8.20;1.77;;;9.60;99.90;;;;;;5151358;27;20336;-44
2022/02/17 07:07:47;;;;;;;5.87;1.30;;;9.70;99.90;;;;;;5152193;27;20420;-43
2022/02/17 07:10:13;;;;;;;3.97;1.00;;;9.60;99.90;;;;;;5151309;27;20435;-43
2022/02/17 07:12:43;;;;;;;3.33;1.63;;;9.60;99.90;;;;;;5152668;27;20408;-43
2022/02/17 07:15:09;;;;;;;2.83;1.10;;;9.60;99.90;;;;;;5151202;27;20354;-43
2022/02/17 07:17:36;;;;;;;4.43;1.13;;;9.50;99.90;;;;;;5153453;27;20488;-43
2022/02/17 07:20:03;;;;;;;2.77;0.90;;;9.60;99.90;;;;;;5133376;27;20494;-43
2022/02/17 07:22:29;;;;;;;2.10;1.23;;;9.60;99.90;;;;;;5153453;27;20419;-42
2022/02/17 07:24:56;;;;;;;2.93;1.20;;;9.60;99.90;;;;;;5139103;27;20732;-45
2022/02/17 07:27:22;;;;;;;2.80;1.20;;;9.70;99.90;;;;;;5140434;27;20209;-43
2022/02/17 07:29:47;;;;;;;4.00;1.20;;;9.70;99.90;;;;;;5156398;27;20432;-43
2022/02/17 07:32:13;;;;;;;6.53;1.30;;;9.80;99.90;;;;;;5159160;27;20499;-43
2022/02/17 07:34:39;;;;;;;5.90;1.57;;;9.90;99.90;;;;;;5159009;27;20317;-42
2022/02/17 07:37:05;;;;;;;6.40;2.20;;;10.10;99.90;;;;;;5140609;27;20278;-41
2022/02/17 07:39:31;;;;;;;3.73;1.30;;;10.30;99.90;;;;;;5158773;27;20527;-42
2022/02/17 07:41:56;;;;;;;2.40;0.90;;;10.70;99.60;;;;;;5159181;27;20423;-42
2022/02/17 07:44:25;;;;;;;4.67;1.40;;;10.80;98.30;;;;;;5157306;27;20273;-43
2022/02/17 07:46:52;;;;;;;6.30;1.77;;;10.90;97.70;;;;;;5156560;27;20175;-43
2022/02/17 07:49:17;;;;;;;9.20;1.93;;;11.10;97.30;;;;;;5156039;27;20455;-42
2022/02/17 07:51:44;;;;;;;7.73;1.73;;;11.00;95.80;;;;;;5156806;27;20444;-42
2022/02/17 07:54:09;;;;;;;8.00;1.60;;;11.10;95.10;;;;;;5154207;27;20431;-42
2022/02/17 07:56:35;;;;;;;3.50;1.60;;;11.20;94.00;;;;;;5139151;27;20464;-42
2022/02/17 07:59:01;;;;;;;7.10;2.00;;;11.10;93.30;;;;;;5157397;27;20482;-42
2022/02/17 08:01:26;;;;;;;6.57;1.90;;;11.00;92.70;;;;;;5158222;27;20600;-42
2022/02/17 08:03:54;;;;;;;11.20;3.00;;;11.00;92.70;;;;;;5158640;27;20545;-43
2022/02/17 08:06:20;;;;;;;6.87;1.80;;;11.20;92.20;;;;;;5159134;27;20170;-43
2022/02/17 08:08:48;;;;;;;6.53;1.63;;;11.20;91.40;;;;;;5157474;27;20699;-43
2022/02/17 08:11:15;;;;;;;7.90;2.43;;;11.40;91.10;;;;;;5156825;27;20461;-41
2022/02/17 08:13:40;;;;;;;6.20;2.20;;;11.60;90.70;;;;;;5156843;27;20894;-44
2022/02/17 08:16:06;;;;;;;7.70;1.97;;;11.80;90.00;;;;;;5154791;27;20475;-42
2022/02/17 08:18:32;;;;;;;8.33;1.80;;;11.90;89.70;;;;;;5157859;27;20271;-42
2022/02/17 08:20:57;;;;;;;8.47;1.97;;;12.30;88.80;;;;;;5155853;27;20198;-42
2022/02/17 08:23:23;;;;;;;9.93;2.20;;;12.80;88.40;;;;;;5158221;27;20567;-45
2022/02/17 08:25:50;;;;;;;6.57;2.00;;;13.00;87.70;;;;;;5158328;27;20206;-45
2022/02/17 08:28:16;;;;;;;6.40;2.47;;;13.40;84.70;;;;;;5159405;27;20499;-43
2022/02/17 08:30:42;;;;;;;9.13;2.20;;;13.20;82.90;;;;;;5156242;27;20492;-44
2022/02/17 08:33:08;;;;;;;6.43;2.50;;;13.40;84.00;;;;;;5158720;27;20171;-43
2022/02/17 08:35:33;;;;;;;7.20;2.60;;;13.80;82.00;;;;;;5157314;27;20205;-45
2022/02/17 08:38:00;;;;;;;7.10;2.50;;;13.70;81.00;;;;;;5156745;27;20501;-46
2022/02/17 08:40:27;;;;;;;5.30;2.03;;;13.90;80.50;;;;;;5138369;27;20183;-44
2022/02/17 08:42:54;;;;;;;4.07;1.67;;;13.90;78.90;;;;;;5155405;27;20474;-42
2022/02/17 08:45:19;;;;;;;8.67;3.40;;;14.20;78.00;;;;;;5158000;27;20422;-44
2022/02/17 08:47:45;;;;;;;6.47;2.53;;;14.40;77.10;;;;;;5156528;27;20420;-42
2022/02/17 08:50:11;;;;;;;7.17;2.33;;;14.40;77.60;;;;;;5158340;27;20201;-43
2022/02/17 08:52:37;;;;;;;6.33;2.70;;;14.70;77.00;;;;;;5155379;27;20178;-44
2022/02/17 08:55:04;;;;;;;8.60;2.30;;;14.80;75.10;;;;;;5158794;27;20479;-44
2022/02/17 08:57:30;;;;;;;8.40;2.40;;;14.60;74.30;;;;;;5156919;27;20424;-44
2022/02/17 08:59:55;;;;;;;5.27;2.10;;;14.50;74.40;;;;;;5155747;27;20848;-43
2022/02/17 09:02:21;;;;;;;8.43;2.73;;;14.80;74.00;;;;;;5156906;27;20171;-42
2022/02/17 09:04:46;;;;;;;8.10;2.73;;;14.40;73.40;;;;;;5158356;27;20223;-42
2022/02/17 09:07:12;;;;;;;5.03;2.50;;;13.60;75.00;;;;;;5155137;27;20265;-42
2022/02/17 09:09:38;;;;;;;6.80;2.60;;;13.70;77.50;;;;;;5156951;27;20176;-43
2022/02/17 09:12:05;;;;;;;6.53;2.17;;;13.90;74.00;;;;;;5157971;27;20183;-43
2022/02/17 09:14:31;;;;;;;7.33;3.07;;;14.30;72.60;;;;;;5158775;27;20422;-44
2022/02/17 09:16:56;;;;;;;4.50;2.13;;;14.10;70.80;;;;;;5157694;27;20464;-44
2022/02/17 09:19:22;;;;;;;7.70;2.57;;;14.60;69.60;;;;;;5156239;27;20460;-43
2022/02/17 09:21:48;;;;;;;5.30;2.00;;;14.80;67.30;;;;;;5157758;27;20186;-42
2022/02/17 09:24:13;;;;;;;8.37;2.80;;;15.00;65.30;;;;;;5158765;27;20173;-44
2022/02/17 09:26:39;;;;;;;10.67;2.57;;;15.20;63.80;;;;;;5157680;27;20175;-45
2022/02/17 09:29:06;;;;;;;9.73;2.50;;;14.70;63.40;;;;;;5157433;27;20235;-42
2022/02/17 09:31:32;;;;;;;7.53;2.77;;;13.20;66.00;;;;;;5158181;27;20167;-43
2022/02/17 09:33:57;;;;;;;8.43;2.50;;;13.10;69.70;;;;;;5157692;27;20426;-43
2022/02/17 09:36:27;;;;;;;8.73;2.67;;;13.30;69.50;;;;;;5158258;27;20874;-44
2022/02/17 09:38:54;;;;;;;12.93;3.23;;;14.30;68.30;;;;;;5121657;27;20479;-42
2022/02/17 09:41:21;;;;;;;7.13;2.63;;;14.30;66.30;;;;;;5157104;27;20440;-43
2022/02/17 09:43:49;;;;;;;9.03;2.70;;;13.50;68.80;;;;;;5138576;27;20764;-43
2022/02/17 09:46:20;;;;;;;6.50;2.37;;;12.60;71.80;;;;;;5140620;27;20697;-45
2022/02/17 09:48:56;;;;;;;8.80;3.00;;;11.70;74.50;;;;;;5130871;27;20449;-42
2022/02/17 09:51:26;;;;;;;10.93;3.00;;;11.30;77.90;;;;;;5118682;27;20767;-43
2022/02/17 09:53:53;;;;;;;16.87;3.57;;;10.80;82.10;;;;;;5100160;27;20433;-44
2022/02/17 09:56:23;;;;;;;9.80;2.77;;;10.50;88.30;;;;;;5101745;27;20508;-42
2022/02/17 09:58:50;;;;;;;15.10;3.53;;;10.00;91.50;;;;;;5135821;27;20906;-44
2022/02/17 10:01:20;;;;;;;9.40;2.27;;;9.80;93.30;;;;;;5137927;27;20405;-45
2022/02/17 10:03:47;;;;;;;11.30;3.00;;;10.10;93.20;;;;;;5136259;27;20421;-44
2022/02/17 10:06:16;;;;;;;13.30;3.20;;;11.20;91.30;;;;;;5136622;27;20755;-46
2022/02/17 10:08:42;;;;;;;4.70;2.17;;;12.40;86.80;;;;;;5135322;27;20424;-46
2022/02/17 10:11:12;;;;;;;11.87;2.90;;;12.90;81.40;;;;;;5135961;27;20429;-44
2022/02/17 10:13:38;;;;;;;9.33;3.00;;;12.50;80.50;;;;;;5117998;28;20429;-42
2022/02/17 10:16:04;;;;;;;8.33;2.60;;;12.20;80.60;;;;;;5136728;27;20453;-43
2022/02/17 10:18:30;;;;;;;9.20;3.37;;;12.10;81.40;;;;;;5136325;28;20224;-43
2022/02/17 10:21:12;;;;;;;7.63;2.80;;;11.80;78.30;;;;;;5101729;28;20423;-47
2022/02/17 10:23:48;;;;;;;10.77;3.53;;;11.70;77.10;;;;;;5117324;28;20425;-43
2022/02/17 10:26:17;;;;;;;11.97;3.27;;;12.00;77.60;;;;;;5136156;28;20404;-44
2022/02/17 10:28:53;;;;;;;10.43;3.57;;;12.10;76.50;;;;;;5136697;28;20436;-45
2022/02/17 10:31:27;;;;;;;6.63;2.83;;;12.50;74.90;;;;;;5134510;28;20432;-44
2022/02/17 10:33:56;;;;;;;7.73;2.63;;;12.80;72.70;;;;;;5117304;28;20408;-44
2022/02/17 10:36:51;;;;;;;11.37;3.57;;;12.40;73.80;;;;;;5136675;28;20616;-43
2022/02/17 10:39:22;;;;;;;11.20;3.50;;;12.10;73.10;;;;;;5115600;28;20437;-44
2022/02/17 10:41:59;;;;;;;9.10;2.37;;;12.20;72.10;;;;;;5134512;28;20481;-45
2022/02/17 10:44:35;;;;;;;7.10;2.73;;;12.50;73.70;;;;;;5134582;28;20405;-44
2022/02/17 10:47:24;;;;;;;12.63;4.57;;;12.60;71.80;;;;;;5134643;28;20466;-44
2022/02/17 10:49:53;;;;;;;12.53;4.57;;;12.30;72.50;;;;;;5115069;28;20749;-48
2022/02/17 10:52:36;;;;;;;10.40;3.30;;;12.80;72.40;;;;;;5113007;28;20443;-47
2022/02/17 10:55:18;;;;;;;11.13;3.03;;;13.20;71.20;;;;;;5132864;28;20544;-42
2022/02/17 10:57:44;;;;;;;12.37;2.90;;;13.00;70.60;;;;;;5116276;27;20468;-43
2022/02/17 11:00:18;;;;;;;12.30;3.17;;;12.20;72.00;;;;;;5139664;27;20413;-44
2022/02/17 11:02:45;;;;;;;8.57;3.50;;;12.20;73.90;;;;;;5138633;27;20455;-41
2022/02/17 11:05:13;;;;;;;7.27;3.40;;;12.00;72.70;;;;;;5121718;27;20756;-44
2022/02/17 11:07:43;;;;;;;6.47;2.57;;;11.60;72.60;;;;;;5105245;27;20791;-42
2022/02/17 11:10:10;;;;;;;8.77;3.10;;;11.40;72.70;;;;;;5138506;27;20439;-44
2022/02/17 11:12:37;;;;;;;7.30;2.80;;;12.30;71.60;;;;;;5140469;27;20416;-47
2022/02/17 11:15:05;;;;;;;13.07;2.80;;;12.80;68.00;;;;;;5138950;27;20490;-44
2022/02/17 11:17:37;;;;;;;12.47;3.30;;;12.70;66.00;;;;;;5139051;27;20755;-43
2022/02/17 11:20:14;;;;;;;9.17;2.70;;;12.60;66.70;;;;;;5138238;27;20419;-43
2022/02/17 11:22:44;;;;;;;6.67;2.50;;;13.00;66.40;;;;;;5138109;27;20432;-43
2022/02/17 11:25:12;;;;;;;8.13;3.47;;;13.80;62.00;;;;;;5136787;27;20544;-45
2022/02/17 11:27:58;;;;;;;8.13;2.90;;;14.30;60.60;;;;;;5139486;27;20409;-42
2022/02/17 11:30:27;;;;;;;8.10;3.90;;;15.30;57.80;;;;;;5119950;27;20934;-42
2022/02/17 11:33:24;;;;;;;10.60;2.53;;;15.00;55.40;;;;;;5121425;27;20725;-43
2022/02/17 11:36:21;;;;;;;9.90;3.40;;;14.40;55.60;;;;;;5119557;27;20465;-44
2022/02/17 11:38:55;;;;;;;15.13;3.30;;;14.20;55.50;;;;;;5137279;27;20412;-45
2022/02/17 11:41:22;;;;;;;10.20;3.53;;;13.60;54.20;;;;;;5138802;27;20644;-45
2022/02/17 11:43:51;;;;;;;12.23;3.40;;;14.30;54.90;;;;;;5137824;27;20405;-43
2022/02/17 11:46:39;;;;;;;11.33;3.67;;;15.40;53.80;;;;;;5137474;27;20409;-44
2022/02/17 11:49:05;;;;;;;9.63;3.03;;;15.10;51.90;;;;;;5119734;27;20433;-42
2022/02/17 11:51:31;;;;;;;8.17;2.73;;;15.60;51.40;;;;;;5119641;27;20485;-44
2022/02/17 11:54:15;;;;;;;10.50;4.00;;;16.00;51.00;;;;;;5135252;27;20218;-45
2022/02/17 11:56:52;;;;;;;8.53;3.00;;;17.10;49.90;;;;;;5138886;27;20290;-45
2022/02/17 11:59:26;;;;;;;14.90;3.90;;;17.20;49.20;;;;;;5137789;27;20417;-44
2022/02/17 12:01:54;;;;;;;11.37;3.60;;;18.00;48.40;;;;;;5138799;27;20443;-45
2022/02/17 12:04:27;;;;;;;12.90;4.37;;;18.40;47.30;;;;;;5137266;27;20418;-43
2022/02/17 12:07:06;;;;;;;10.30;3.90;;;17.10;48.00;;;;;;5121510;27;20415;-44
2022/02/17 12:09:45;;;;;;;20.93;4.80;;;15.80;49.40;;;;;;5101768;27;20433;-43
2022/02/17 12:12:23;;;;;;;11.93;3.87;;;14.40;51.50;;;;;;5121082;27;20420;-44
2022/02/17 12:14:49;;;;;;;11.77;4.07;;;14.00;53.60;;;;;;5137000;27;20721;-44
2022/02/17 12:17:15;;;;;;;10.10;3.30;;;13.60;54.70;;;;;;5121395;27;20409;-42
2022/02/17 12:19:41;;;;;;;10.37;3.50;;;13.60;55.20;;;;;;5138548;27;20590;-45
2022/02/17 12:22:12;;;;;;;12.20;3.87;;;14.20;55.70;;;;;;5137807;27;20422;-42
2022/02/17 12:24:42;;;;;;;13.57;4.10;;;15.10;54.60;;;;;;5136655;27;20427;-45
2022/02/17 12:27:10;;;;;;;10.80;4.37;;;15.00;53.40;;;;;;5117521;27;20425;-45
2022/02/17 12:29:37;;;;;;;12.70;4.50;;;15.10;53.80;;;;;;5135899;27;20522;-45
2022/02/17 12:32:08;;;;;;;12.40;4.40;;;14.70;53.40;;;;;;5136404;27;20429;-45
2022/02/17 12:34:34;;;;;;;13.60;4.07;;;13.90;54.80;;;;;;5137506;27;20417;-44
2022/02/17 12:37:01;;;;;;;11.70;4.13;;;13.90;55.60;;;;;;5118767;27;20901;-42
2022/02/17 12:39:31;;;;;;;10.07;4.20;;;14.40;55.00;;;;;;5120875;27;20423;-42
2022/02/17 12:42:02;;;;;;;10.90;3.93;;;14.70;54.50;;;;;;5102193;27;20446;-42
2022/02/17 12:44:37;;;;;;;12.07;3.90;;;15.10;53.60;;;;;;5118810;27;20424;-42
2022/02/17 12:47:04;;;;;;;12.33;4.00;;;15.50;52.60;;;;;;5134098;27;20527;-42
2022/02/17 12:49:31;;;;;;;12.40;4.13;;;16.20;51.70;;;;;;5135865;27;20443;-46